sensor_id;sensor_type;location;lat;lon;timestamp;P1;P2;P0
55591;PMS5003;41454;53.396;-1.510;2022-11-20T00:01:27;56;53;
55591;PMS5003;41454;53.396;-1.510;2022-11-20T00:03:55;59;56;
55591;PMS5003;41454;53.396;-1.510;2022-11-20T00:06:23;56;51;
55591;PMS5003;41454;53.396;-1.510;2022-11-20T00:08:53;65;58;
55591;PMS5003;41454;53.396;-1.510;2022-11-20T00:11:22;63;54;
55591;PMS5003;41454;53.396;-1.510;2022-11-20T00:13:51;63;57;
55591;PMS5003;41454;53.396;-1.510;2022-11-20T00:16:20;56;51;
55591;PMS5003;41454;53.396;-1.510;2022-11-20T00:18:55;63;54;
55591;PMS5003;41454;53.396;-1.510;2022-11-20T00:22:29;60;51;
55591;PMS5003;41454;53.396;-1.510;2022-11-20T00:24:56;64;58;
55591;PMS5003;41454;53.396;-1.510;2022-11-20T00:27:23;61;53;
55591;PMS5003;41454;53.396;-1.510;2022-11-20T00:29:50;59;47;
55591;PMS5003;41454;53.396;-1.510;2022-11-20T00:32:17;56;52;
55591;PMS5003;41454;53.396;-1.510;2022-11-20T00:34:44;55;51;
55591;PMS5003;41454;53.396;-1.510;2022-11-20T00:37:12;55;50;
55591;PMS5003;41454;53.396;-1.510;2022-11-20T00:39:39;57;48;
55591;PMS5003;41454;53.396;-1.510;2022-11-20T00:42:06;65;54;
55591;PMS5003;41454;53.396;-1.510;2022-11-20T00:44:33;60;51;
55591;PMS5003;41454;53.396;-1.510;2022-11-20T00:47:00;59;49;
55591;PMS5003;41454;53.396;-1.510;2022-11-20T00:49:27;52;50;
55591;PMS5003;41454;53.396;-1.510;2022-11-20T00:51:54;60;54;
55591;PMS5003;41454;53.396;-1.510;2022-11-20T00:54:22;56;49;
55591;PMS5003;41454;53.396;-1.510;2022-11-20T00:56:49;57;54;
55591;PMS5003;41454;53.396;-1.510;2022-11-20T00:59:19;56;51;
55591;PMS5003;41454;53.396;-1.510;2022-11-20T01:01:47;61;55;
55591;PMS5003;41454;53.396;-1.510;2022-11-20T01:04:13;58;53;
55591;PMS5003;41454;53.396;-1.510;2022-11-20T01:06:41;60;56;
55591;PMS5003;41454;53.396;-1.510;2022-11-20T01:09:09;52;48;
55591;PMS5003;41454;53.396;-1.510;2022-11-20T01:11:39;71;59;
55591;PMS5003;41454;53.396;-1.510;2022-11-20T01:14:10;61;51;
55591;PMS5003;41454;53.396;-1.510;2022-11-20T01:16:39;55;52;
55591;PMS5003;41454;53.396;-1.510;2022-11-20T01:19:09;53;52;
55591;PMS5003;41454;53.396;-1.510;2022-11-20T01:21:38;52;50;
55591;PMS5003;41454;53.396;-1.510;2022-11-20T01:24:08;65;54;
55591;PMS5003;41454;53.396;-1.510;2022-11-20T01:26:38;53;49;
55591;PMS5003;41454;53.396;-1.510;2022-11-20T01:29:06;58;52;
55591;PMS5003;41454;53.396;-1.510;2022-11-20T01:31:38;57;50;
55591;PMS5003;41454;53.396;-1.510;2022-11-20T01:34:07;57;53;
55591;PMS5003;41454;53.396;-1.510;2022-11-20T01:36:37;61;50;
55591;PMS5003;41454;53.396;-1.510;2022-11-20T01:39:07;65;52;
55591;PMS5003;41454;53.396;-1.510;2022-11-20T01:41:37;58;49;
55591;PMS5003;41454;53.396;-1.510;2022-11-20T01:44:05;58;53;
55591;PMS5003;41454;53.396;-1.510;2022-11-20T01:47:26;52;47;
55591;PMS5003;41454;53.396;-1.510;2022-11-20T02:01:38;52;49;
55591;PMS5003;41454;53.396;-1.510;2022-11-20T02:04:06;53;46;
55591;PMS5003;41454;53.396;-1.510;2022-11-20T02:06:35;50;48;
55591;PMS5003;41454;53.396;-1.510;2022-11-20T02:09:08;55;50;
55591;PMS5003;41454;53.396;-1.510;2022-11-20T02:11:36;47;44;
55591;PMS5003;41454;53.396;-1.510;2022-11-20T02:14:03;52;46;
55591;PMS5003;41454;53.396;-1.510;2022-11-20T02:16:33;44;40;
55591;PMS5003;41454;53.396;-1.510;2022-11-20T02:19:06;57;47;
55591;PMS5003;41454;53.396;-1.510;2022-11-20T02:21:47;44;42;
55591;PMS5003;41454;53.396;-1.510;2022-11-20T02:24:22;47;42;
55591;PMS5003;41454;53.396;-1.510;2022-11-20T02:26:50;47;45;
55591;PMS5003;41454;53.396;-1.510;2022-11-20T02:29:22;44;42;
55591;PMS5003;41454;53.396;-1.510;2022-11-20T02:31:52;39;37;
55591;PMS5003;41454;53.396;-1.510;2022-11-20T02:34:21;50;46;
55591;PMS5003;41454;53.396;-1.510;2022-11-20T02:36:49;47;42;
55591;PMS5003;41454;53.396;-1.510;2022-11-20T02:39:18;47;40;
55591;PMS5003;41454;53.396;-1.510;2022-11-20T02:41:46;53;48;
55591;PMS5003;41454;53.396;-1.510;2022-11-20T03:01:44;45;35;
55591;PMS5003;41454;53.396;-1.510;2022-11-20T03:04:12;41;31;
55591;PMS5003;41454;53.396;-1.510;2022-11-20T03:28:36;35;32;
55591;PMS5003;41454;53.396;-1.510;2022-11-20T03:34:01;31;26;
55591;PMS5003;41454;53.396;-1.510;2022-11-20T03:36:29;32;29;
55591;PMS5003;41454;53.396;-1.510;2022-11-20T03:38:57;31;27;
55591;PMS5003;41454;53.396;-1.510;2022-11-20T03:41:25;26;23;
55591;PMS5003;41454;53.396;-1.510;2022-11-20T03:44:03;26;25;
55591;PMS5003;41454;53.396;-1.510;2022-11-20T03:46:32;34;31;
55591;PMS5003;41454;53.396;-1.510;2022-11-20T03:53:52;33;28;
55591;PMS5003;41454;53.396;-1.510;2022-11-20T03:56:22;29;25;
55591;PMS5003;41454;53.396;-1.510;2022-11-20T03:58:51;29;24;
55591;PMS5003;41454;53.396;-1.510;2022-11-20T04:01:19;24;23;
55591;PMS5003;41454;53.396;-1.510;2022-11-20T04:03:48;30;26;
55591;PMS5003;41454;53.396;-1.510;2022-11-20T04:06:27;26;24;
55591;PMS5003;41454;53.396;-1.510;2022-11-20T04:09:00;28;24;
55591;PMS5003;41454;53.396;-1.510;2022-11-20T04:11:28;29;26;
55591;PMS5003;41454;53.396;-1.510;2022-11-20T04:13:57;27;24;
55591;PMS5003;41454;53.396;-1.510;2022-11-20T04:16:31;27;22;
55591;PMS5003;41454;53.396;-1.510;2022-11-20T04:21:24;22;21;
55591;PMS5003;41454;53.396;-1.510;2022-11-20T04:23:52;21;19;
55591;PMS5003;41454;53.396;-1.510;2022-11-20T04:26:20;21;19;
55591;PMS5003;41454;53.396;-1.510;2022-11-20T04:28:48;23;21;
55591;PMS5003;41454;53.396;-1.510;2022-11-20T04:31:17;16;13;
55591;PMS5003;41454;53.396;-1.510;2022-11-20T04:33:45;18;16;
55591;PMS5003;41454;53.396;-1.510;2022-11-20T04:36:13;21;18;
55591;PMS5003;41454;53.396;-1.510;2022-11-20T04:38:41;18;16;
55591;PMS5003;41454;53.396;-1.510;2022-11-20T04:41:09;21;21;
55591;PMS5003;41454;53.396;-1.510;2022-11-20T04:43:40;18;16;
55591;PMS5003;41454;53.396;-1.510;2022-11-20T04:46:07;20;16;
55591;PMS5003;41454;53.396;-1.510;2022-11-20T04:48:34;15;15;
55591;PMS5003;41454;53.396;-1.510;2022-11-20T04:51:02;15;15;
55591;PMS5003;41454;53.396;-1.510;2022-11-20T04:53:30;19;14;
55591;PMS5003;41454;53.396;-1.510;2022-11-20T04:55:59;18;16;
55591;PMS5003;41454;53.396;-1.510;2022-11-20T04:58:27;16;16;
55591;PMS5003;41454;53.396;-1.510;2022-11-20T05:01:00;18;14;
55591;PMS5003;41454;53.396;-1.510;2022-11-20T05:03:28;16;15;
55591;PMS5003;41454;53.396;-1.510;2022-11-20T05:05:56;15;14;
55591;PMS5003;41454;53.396;-1.510;2022-11-20T05:08:26;16;14;
55591;PMS5003;41454;53.396;-1.510;2022-11-20T05:10:59;13;13;
55591;PMS5003;41454;53.396;-1.510;2022-11-20T05:13:27;13;13;
55591;PMS5003;41454;53.396;-1.510;2022-11-20T05:16:01;11;11;
55591;PMS5003;41454;53.396;-1.510;2022-11-20T05:18:28;10;9;
55591;PMS5003;41454;53.396;-1.510;2022-11-20T05:20:56;13;11;
55591;PMS5003;41454;53.396;-1.510;2022-11-20T05:23:24;9;9;
55591;PMS5003;41454;53.396;-1.510;2022-11-20T05:25:52;11;10;
55591;PMS5003;41454;53.396;-1.510;2022-11-20T05:53:19;4;4;
55591;PMS5003;41454;53.396;-1.510;2022-11-20T05:55:46;4;4;
55591;PMS5003;41454;53.396;-1.510;2022-11-20T05:58:21;2;2;
55591;PMS5003;41454;53.396;-1.510;2022-11-20T06:00:48;5;5;
55591;PMS5003;41454;53.396;-1.510;2022-11-20T06:03:16;3;3;
55591;PMS5003;41454;53.396;-1.510;2022-11-20T06:05:43;1;1;
55591;PMS5003;41454;53.396;-1.510;2022-11-20T06:08:11;2;2;
55591;PMS5003;41454;53.396;-1.510;2022-11-20T06:10:37;3;3;
55591;PMS5003;41454;53.396;-1.510;2022-11-20T06:13:04;2;2;
55591;PMS5003;41454;53.396;-1.510;2022-11-20T06:15:32;4;4;
55591;PMS5003;41454;53.396;-1.510;2022-11-20T08:35:47;28;24;
55591;PMS5003;41454;53.396;-1.510;2022-11-20T08:38:15;12;12;
55591;PMS5003;41454;53.396;-1.510;2022-11-20T08:40:42;13;12;
55591;PMS5003;41454;53.396;-1.510;2022-11-20T08:43:10;11;10;
55591;PMS5003;41454;53.396;-1.510;2022-11-20T08:45:37;10;9;
55591;PMS5003;41454;53.396;-1.510;2022-11-20T08:48:05;8;8;
55591;PMS5003;41454;53.396;-1.510;2022-11-20T08:50:32;8;8;
55591;PMS5003;41454;53.396;-1.510;2022-11-20T08:53:02;8;7;
55591;PMS5003;41454;53.396;-1.510;2022-11-20T08:55:29;13;11;
55591;PMS5003;41454;53.396;-1.510;2022-11-20T08:57:56;7;7;
55591;PMS5003;41454;53.396;-1.510;2022-11-20T09:00:26;12;12;
55591;PMS5003;41454;53.396;-1.510;2022-11-20T09:02:53;11;9;
55591;PMS5003;41454;53.396;-1.510;2022-11-20T09:05:20;10;10;
55591;PMS5003;41454;53.396;-1.510;2022-11-20T09:07:47;11;10;
55591;PMS5003;41454;53.396;-1.510;2022-11-20T09:10:15;12;11;
55591;PMS5003;41454;53.396;-1.510;2022-11-20T09:12:42;11;11;
55591;PMS5003;41454;53.396;-1.510;2022-11-20T09:15:09;10;10;
55591;PMS5003;41454;53.396;-1.510;2022-11-20T09:17:36;12;11;
55591;PMS5003;41454;53.396;-1.510;2022-11-20T09:20:04;11;10;
55591;PMS5003;41454;53.396;-1.510;2022-11-20T09:22:32;12;12;
55591;PMS5003;41454;53.396;-1.510;2022-11-20T09:24:59;11;10;
55591;PMS5003;41454;53.396;-1.510;2022-11-20T09:27:26;11;11;
55591;PMS5003;41454;53.396;-1.510;2022-11-20T09:29:52;11;9;
55591;PMS5003;41454;53.396;-1.510;2022-11-20T09:32:19;10;10;
55591;PMS5003;41454;53.396;-1.510;2022-11-20T09:34:46;8;8;
55591;PMS5003;41454;53.396;-1.510;2022-11-20T09:37:14;9;7;
55591;PMS5003;41454;53.396;-1.510;2022-11-20T09:39:40;12;12;
55591;PMS5003;41454;53.396;-1.510;2022-11-20T09:42:16;12;11;
